sensor_id;sensor_type;location;lat;lon;timestamp;P1;durP1;ratioP1;P2;durP2;ratioP2
173;SDS011;75;48.784;9.364;2023-05-07T00:02:19;6.67;;;4.17;;
173;SDS011;75;48.784;9.364;2023-05-07T00:05:04;7.13;;;4.63;;
173;SDS011;75;48.784;9.364;2023-05-07T00:07:49;12.13;;;4.37;;
173;SDS011;75;48.784;9.364;2023-05-07T00:10:34;6.07;;;4.20;;
173;SDS011;75;48.784;9.364;2023-05-07T00:13:18;6.70;;;4.53;;
173;SDS011;75;48.784;9.364;2023-05-07T00:16:03;6.33;;;4.70;;
173;SDS011;75;48.784;9.364;2023-05-07T00:18:47;7.40;;;4.50;;
173;SDS011;75;48.784;9.364;2023-05-07T00:21:32;5.80;;;4.23;;
173;SDS011;75;48.784;9.364;2023-05-07T00:24:17;6.63;;;4.70;;
173;SDS011;75;48.784;9.364;2023-05-07T00:27:01;5.63;;;4.53;;
173;SDS011;75;48.784;9.364;2023-05-07T00:29:46;5.30;;;4.10;;
173;SDS011;75;48.784;9.364;2023-05-07T00:32:30;5.27;;;4.40;;
173;SDS011;75;48.784;9.364;2023-05-07T00:35:15;6.10;;;4.43;;
173;SDS011;75;48.784;9.364;2023-05-07T00:37:59;5.57;;;4.60;;
173;SDS011;75;48.784;9.364;2023-05-07T00:40:44;6.43;;;4.73;;
173;SDS011;75;48.784;9.364;2023-05-07T00:43:29;6.23;;;4.50;;
173;SDS011;75;48.784;9.364;2023-05-07T00:46:13;6.17;;;4.93;;
173;SDS011;75;48.784;9.364;2023-05-07T00:48:59;8.23;;;4.73;;
173;SDS011;75;48.784;9.364;2023-05-07T00:51:44;6.97;;;4.90;;
173;SDS011;75;48.784;9.364;2023-05-07T00:54:29;5.93;;;4.50;;
173;SDS011;75;48.784;9.364;2023-05-07T00:57:13;5.77;;;4.13;;
173;SDS011;75;48.784;9.364;2023-05-07T00:59:58;8.43;;;4.53;;
173;SDS011;75;48.784;9.364;2023-05-07T01:02:43;5.13;;;4.20;;
173;SDS011;75;48.784;9.364;2023-05-07T01:05:28;7.20;;;4.67;;
173;SDS011;75;48.784;9.364;2023-05-07T01:08:13;6.47;;;4.70;;
173;SDS011;75;48.784;9.364;2023-05-07T01:10:59;8.10;;;5.00;;
173;SDS011;75;48.784;9.364;2023-05-07T01:13:43;10.40;;;6.23;;
173;SDS011;75;48.784;9.364;2023-05-07T01:16:28;8.10;;;5.90;;
173;SDS011;75;48.784;9.364;2023-05-07T01:19:13;8.10;;;4.93;;
173;SDS011;75;48.784;9.364;2023-05-07T01:22:01;11.73;;;5.47;;
173;SDS011;75;48.784;9.364;2023-05-07T01:24:47;6.33;;;4.57;;
173;SDS011;75;48.784;9.364;2023-05-07T01:27:31;5.83;;;4.63;;
173;SDS011;75;48.784;9.364;2023-05-07T01:30:17;8.53;;;4.80;;
173;SDS011;75;48.784;9.364;2023-05-07T01:33:07;6.47;;;5.10;;
173;SDS011;75;48.784;9.364;2023-05-07T01:35:53;7.43;;;5.33;;
173;SDS011;75;48.784;9.364;2023-05-07T01:38:38;6.13;;;4.70;;
173;SDS011;75;48.784;9.364;2023-05-07T01:41:23;10.83;;;4.80;;
173;SDS011;75;48.784;9.364;2023-05-07T01:44:08;8.93;;;4.90;;
173;SDS011;75;48.784;9.364;2023-05-07T01:46:54;6.47;;;5.20;;
173;SDS011;75;48.784;9.364;2023-05-07T01:49:39;8.00;;;4.70;;
173;SDS011;75;48.784;9.364;2023-05-07T01:52:24;6.33;;;5.30;;
173;SDS011;75;48.784;9.364;2023-05-07T01:55:09;6.20;;;5.07;;
173;SDS011;75;48.784;9.364;2023-05-07T01:57:55;6.03;;;4.60;;
173;SDS011;75;48.784;9.364;2023-05-07T02:00:39;12.27;;;4.93;;
173;SDS011;75;48.784;9.364;2023-05-07T02:03:25;6.20;;;4.63;;
173;SDS011;75;48.784;9.364;2023-05-07T02:06:09;5.23;;;4.60;;
173;SDS011;75;48.784;9.364;2023-05-07T02:08:54;5.67;;;4.80;;
173;SDS011;75;48.784;9.364;2023-05-07T02:11:38;6.43;;;4.60;;
173;SDS011;75;48.784;9.364;2023-05-07T02:14:23;7.07;;;4.97;;
173;SDS011;75;48.784;9.364;2023-05-07T02:17:09;7.00;;;5.10;;
173;SDS011;75;48.784;9.364;2023-05-07T02:19:54;6.60;;;4.90;;
173;SDS011;75;48.784;9.364;2023-05-07T02:22:38;6.43;;;5.00;;
173;SDS011;75;48.784;9.364;2023-05-07T02:25:23;6.13;;;5.10;;
173;SDS011;75;48.784;9.364;2023-05-07T02:28:07;7.43;;;4.80;;
173;SDS011;75;48.784;9.364;2023-05-07T02:30:52;7.70;;;4.80;;
173;SDS011;75;48.784;9.364;2023-05-07T02:33:36;6.50;;;4.87;;
173;SDS011;75;48.784;9.364;2023-05-07T02:36:21;7.03;;;4.87;;
173;SDS011;75;48.784;9.364;2023-05-07T02:39:05;7.20;;;4.80;;
173;SDS011;75;48.784;9.364;2023-05-07T02:41:50;6.50;;;5.03;;
173;SDS011;75;48.784;9.364;2023-05-07T02:44:34;7.10;;;5.20;;
173;SDS011;75;48.784;9.364;2023-05-07T02:47:19;6.83;;;4.80;;
173;SDS011;75;48.784;9.364;2023-05-07T02:50:04;8.20;;;4.53;;
173;SDS011;75;48.784;9.364;2023-05-07T02:52:49;7.67;;;5.00;;
173;SDS011;75;48.784;9.364;2023-05-07T02:55:33;8.20;;;4.70;;
173;SDS011;75;48.784;9.364;2023-05-07T02:58:18;7.10;;;5.10;;
173;SDS011;75;48.784;9.364;2023-05-07T03:01:03;5.90;;;4.80;;
173;SDS011;75;48.784;9.364;2023-05-07T03:03:47;6.10;;;4.80;;
173;SDS011;75;48.784;9.364;2023-05-07T03:06:32;7.10;;;5.03;;
173;SDS011;75;48.784;9.364;2023-05-07T03:09:16;7.87;;;5.00;;
173;SDS011;75;48.784;9.364;2023-05-07T03:12:01;8.00;;;5.10;;
173;SDS011;75;48.784;9.364;2023-05-07T03:14:45;7.43;;;5.40;;
173;SDS011;75;48.784;9.364;2023-05-07T03:17:30;6.90;;;5.33;;
173;SDS011;75;48.784;9.364;2023-05-07T03:20:14;7.07;;;5.30;;
173;SDS011;75;48.784;9.364;2023-05-07T03:22:59;9.57;;;5.50;;
173;SDS011;75;48.784;9.364;2023-05-07T03:25:43;6.67;;;5.30;;
173;SDS011;75;48.784;9.364;2023-05-07T03:28:28;7.33;;;4.87;;
173;SDS011;75;48.784;9.364;2023-05-07T03:31:12;8.43;;;5.80;;
173;SDS011;75;48.784;9.364;2023-05-07T03:33:57;7.37;;;5.43;;
173;SDS011;75;48.784;9.364;2023-05-07T03:36:42;7.60;;;6.17;;
173;SDS011;75;48.784;9.364;2023-05-07T03:39:27;9.80;;;6.50;;
173;SDS011;75;48.784;9.364;2023-05-07T03:42:11;8.60;;;6.20;;
173;SDS011;75;48.784;9.364;2023-05-07T03:44:56;6.73;;;5.50;;
173;SDS011;75;48.784;9.364;2023-05-07T03:47:40;10.23;;;5.33;;
173;SDS011;75;48.784;9.364;2023-05-07T03:50:25;7.43;;;5.33;;
173;SDS011;75;48.784;9.364;2023-05-07T03:53:10;6.53;;;5.13;;
173;SDS011;75;48.784;9.364;2023-05-07T03:55:54;10.20;;;5.23;;
173;SDS011;75;48.784;9.364;2023-05-07T03:58:39;8.60;;;5.40;;
173;SDS011;75;48.784;9.364;2023-05-07T04:01:24;7.23;;;4.83;;
173;SDS011;75;48.784;9.364;2023-05-07T04:04:08;8.00;;;5.20;;
173;SDS011;75;48.784;9.364;2023-05-07T04:06:53;8.43;;;5.10;;
173;SDS011;75;48.784;9.364;2023-05-07T04:09:37;7.10;;;5.47;;
173;SDS011;75;48.784;9.364;2023-05-07T04:12:22;5.87;;;5.10;;
173;SDS011;75;48.784;9.364;2023-05-07T04:15:06;8.10;;;5.57;;
173;SDS011;75;48.784;9.364;2023-05-07T04:17:51;7.67;;;5.60;;
173;SDS011;75;48.784;9.364;2023-05-07T04:20:36;7.63;;;5.10;;
173;SDS011;75;48.784;9.364;2023-05-07T04:23:21;7.83;;;5.00;;
173;SDS011;75;48.784;9.364;2023-05-07T04:26:05;11.40;;;5.27;;
173;SDS011;75;48.784;9.364;2023-05-07T04:28:50;6.97;;;5.00;;
173;SDS011;75;48.784;9.364;2023-05-07T04:31:34;7.53;;;4.80;;
173;SDS011;75;48.784;9.364;2023-05-07T04:34:19;7.20;;;5.20;;
173;SDS011;75;48.784;9.364;2023-05-07T04:37:04;5.90;;;4.57;;
173;SDS011;75;48.784;9.364;2023-05-07T04:39:49;5.80;;;4.60;;
173;SDS011;75;48.784;9.364;2023-05-07T04:42:33;5.37;;;4.53;;
173;SDS011;75;48.784;9.364;2023-05-07T04:45:18;5.90;;;4.63;;
173;SDS011;75;48.784;9.364;2023-05-07T04:48:02;7.90;;;5.20;;
173;SDS011;75;48.784;9.364;2023-05-07T04:50:47;10.43;;;6.20;;
173;SDS011;75;48.784;9.364;2023-05-07T04:53:32;6.47;;;4.90;;
173;SDS011;75;48.784;9.364;2023-05-07T04:56:17;5.20;;;4.40;;
173;SDS011;75;48.784;9.364;2023-05-07T04:59:02;5.03;;;4.10;;
173;SDS011;75;48.784;9.364;2023-05-07T05:01:46;8.37;;;3.93;;
173;SDS011;75;48.784;9.364;2023-05-07T05:04:31;5.70;;;4.23;;
173;SDS011;75;48.784;9.364;2023-05-07T05:07:16;5.87;;;4.33;;
173;SDS011;75;48.784;9.364;2023-05-07T05:10:01;11.10;;;5.20;;
173;SDS011;75;48.784;9.364;2023-05-07T05:12:46;5.10;;;4.00;;
173;SDS011;75;48.784;9.364;2023-05-07T05:15:31;5.40;;;4.03;;
173;SDS011;75;48.784;9.364;2023-05-07T05:18:15;5.97;;;4.00;;
173;SDS011;75;48.784;9.364;2023-05-07T05:21:00;8.17;;;4.33;;
173;SDS011;75;48.784;9.364;2023-05-07T05:23:44;7.17;;;4.17;;
173;SDS011;75;48.784;9.364;2023-05-07T05:26:29;10.23;;;4.60;;
173;SDS011;75;48.784;9.364;2023-05-07T05:29:13;6.57;;;4.40;;
173;SDS011;75;48.784;9.364;2023-05-07T05:31:58;5.87;;;4.00;;
173;SDS011;75;48.784;9.364;2023-05-07T05:34:42;6.60;;;4.23;;
173;SDS011;75;48.784;9.364;2023-05-07T05:37:27;7.97;;;3.67;;
173;SDS011;75;48.784;9.364;2023-05-07T05:40:13;6.07;;;4.13;;
173;SDS011;75;48.784;9.364;2023-05-07T05:42:58;5.27;;;3.67;;
173;SDS011;75;48.784;9.364;2023-05-07T05:45:42;6.80;;;3.70;;
173;SDS011;75;48.784;9.364;2023-05-07T05:48:28;5.83;;;3.80;;
173;SDS011;75;48.784;9.364;2023-05-07T05:51:13;7.93;;;3.90;;
173;SDS011;75;48.784;9.364;2023-05-07T05:53:57;6.13;;;3.90;;
173;SDS011;75;48.784;9.364;2023-05-07T05:56:42;5.63;;;4.43;;
173;SDS011;75;48.784;9.364;2023-05-07T05:59:27;5.77;;;4.57;;
173;SDS011;75;48.784;9.364;2023-05-07T06:02:11;5.50;;;4.20;;
173;SDS011;75;48.784;9.364;2023-05-07T06:04:56;7.70;;;4.30;;
173;SDS011;75;48.784;9.364;2023-05-07T06:07:40;6.90;;;4.50;;
173;SDS011;75;48.784;9.364;2023-05-07T06:10:25;7.30;;;4.73;;
173;SDS011;75;48.784;9.364;2023-05-07T06:13:10;5.97;;;4.20;;
173;SDS011;75;48.784;9.364;2023-05-07T06:15:55;6.90;;;5.20;;
173;SDS011;75;48.784;9.364;2023-05-07T06:18:39;5.17;;;4.37;;
173;SDS011;75;48.784;9.364;2023-05-07T06:21:24;6.40;;;4.60;;
173;SDS011;75;48.784;9.364;2023-05-07T06:24:08;6.23;;;4.57;;
173;SDS011;75;48.784;9.364;2023-05-07T06:26:53;6.50;;;4.77;;
173;SDS011;75;48.784;9.364;2023-05-07T06:29:38;6.57;;;4.40;;
173;SDS011;75;48.784;9.364;2023-05-07T06:32:22;9.03;;;4.63;;
173;SDS011;75;48.784;9.364;2023-05-07T06:35:07;9.30;;;4.63;;
173;SDS011;75;48.784;9.364;2023-05-07T06:37:52;5.90;;;4.57;;
173;SDS011;75;48.784;9.364;2023-05-07T06:40:36;7.20;;;4.60;;
173;SDS011;75;48.784;9.364;2023-05-07T06:43:21;5.80;;;4.50;;
173;SDS011;75;48.784;9.364;2023-05-07T06:46:06;6.00;;;4.87;;
173;SDS011;75;48.784;9.364;2023-05-07T06:48:51;6.87;;;5.40;;
173;SDS011;75;48.784;9.364;2023-05-07T06:51:36;7.60;;;4.60;;
173;SDS011;75;48.784;9.364;2023-05-07T06:54:20;6.50;;;4.57;;
173;SDS011;75;48.784;9.364;2023-05-07T06:57:05;8.37;;;4.40;;
173;SDS011;75;48.784;9.364;2023-05-07T06:59:49;7.17;;;4.87;;
173;SDS011;75;48.784;9.364;2023-05-07T07:02:34;6.93;;;5.00;;
173;SDS011;75;48.784;9.364;2023-05-07T07:05:18;5.50;;;4.60;;
173;SDS011;75;48.784;9.364;2023-05-07T07:08:03;7.47;;;5.07;;
173;SDS011;75;48.784;9.364;2023-05-07T07:10:48;7.63;;;5.37;;
173;SDS011;75;48.784;9.364;2023-05-07T07:13:33;6.23;;;4.67;;
173;SDS011;75;48.784;9.364;2023-05-07T07:16:17;6.73;;;5.20;;
173;SDS011;75;48.784;9.364;2023-05-07T07:19:02;7.33;;;4.90;;
173;SDS011;75;48.784;9.364;2023-05-07T07:21:47;8.93;;;4.93;;
173;SDS011;75;48.784;9.364;2023-05-07T07:24:31;6.67;;;4.60;;
173;SDS011;75;48.784;9.364;2023-05-07T07:27:16;7.40;;;4.80;;
173;SDS011;75;48.784;9.364;2023-05-07T07:30:00;6.10;;;4.77;;
173;SDS011;75;48.784;9.364;2023-05-07T07:32:45;7.00;;;4.80;;
173;SDS011;75;48.784;9.364;2023-05-07T07:35:29;6.70;;;5.23;;
173;SDS011;75;48.784;9.364;2023-05-07T07:38:14;5.70;;;4.70;;
173;SDS011;75;48.784;9.364;2023-05-07T07:40:59;8.67;;;4.90;;
173;SDS011;75;48.784;9.364;2023-05-07T07:43:44;9.07;;;4.87;;
173;SDS011;75;48.784;9.364;2023-05-07T07:46:30;6.33;;;4.63;;
173;SDS011;75;48.784;9.364;2023-05-07T07:49:14;7.83;;;4.50;;
173;SDS011;75;48.784;9.364;2023-05-07T07:51:59;7.57;;;4.80;;
173;SDS011;75;48.784;9.364;2023-05-07T07:54:44;6.67;;;4.73;;
173;SDS011;75;48.784;9.364;2023-05-07T07:57:29;5.93;;;4.90;;
173;SDS011;75;48.784;9.364;2023-05-07T08:00:14;8.90;;;5.23;;
173;SDS011;75;48.784;9.364;2023-05-07T08:02:59;7.60;;;5.13;;
173;SDS011;75;48.784;9.364;2023-05-07T08:05:44;5.63;;;4.87;;
173;SDS011;75;48.784;9.364;2023-05-07T08:08:28;7.00;;;5.30;;
173;SDS011;75;48.784;9.364;2023-05-07T08:11:13;6.20;;;5.03;;
173;SDS011;75;48.784;9.364;2023-05-07T08:13:58;4.93;;;4.40;;
173;SDS011;75;48.784;9.364;2023-05-07T08:16:42;7.60;;;5.10;;
173;SDS011;75;48.784;9.364;2023-05-07T08:19:27;5.97;;;4.40;;
173;SDS011;75;48.784;9.364;2023-05-07T08:22:11;7.50;;;5.10;;
173;SDS011;75;48.784;9.364;2023-05-07T08:24:56;8.33;;;4.63;;
173;SDS011;75;48.784;9.364;2023-05-07T08:27:40;6.13;;;4.60;;
173;SDS011;75;48.784;9.364;2023-05-07T08:30:24;6.07;;;4.67;;
173;SDS011;75;48.784;9.364;2023-05-07T08:33:09;7.80;;;4.90;;
173;SDS011;75;48.784;9.364;2023-05-07T08:35:54;5.90;;;4.90;;
173;SDS011;75;48.784;9.364;2023-05-07T08:38:38;6.87;;;4.73;;
173;SDS011;75;48.784;9.364;2023-05-07T08:41:29;6.27;;;4.33;;
173;SDS011;75;48.784;9.364;2023-05-07T08:44:14;5.23;;;4.50;;
173;SDS011;75;48.784;9.364;2023-05-07T08:46:59;5.80;;;4.17;;
173;SDS011;75;48.784;9.364;2023-05-07T08:49:44;8.37;;;4.40;;
173;SDS011;75;48.784;9.364;2023-05-07T08:52:29;7.10;;;4.47;;
173;SDS011;75;48.784;9.364;2023-05-07T08:55:13;6.87;;;4.47;;
173;SDS011;75;48.784;9.364;2023-05-07T08:57:59;8.93;;;4.83;;
173;SDS011;75;48.784;9.364;2023-05-07T09:00:44;6.23;;;4.90;;
173;SDS011;75;48.784;9.364;2023-05-07T09:03:30;5.70;;;4.43;;
173;SDS011;75;48.784;9.364;2023-05-07T09:06:15;8.77;;;4.43;;
173;SDS011;75;48.784;9.364;2023-05-07T09:09:00;9.87;;;5.20;;
173;SDS011;75;48.784;9.364;2023-05-07T09:11:48;7.40;;;4.90;;
173;SDS011;75;48.784;9.364;2023-05-07T09:14:32;6.50;;;4.80;;
173;SDS011;75;48.784;9.364;2023-05-07T09:17:17;7.33;;;5.20;;
173;SDS011;75;48.784;9.364;2023-05-07T09:20:03;6.73;;;4.93;;
173;SDS011;75;48.784;9.364;2023-05-07T09:22:48;6.97;;;5.67;;
173;SDS011;75;48.784;9.364;2023-05-07T09:25:35;7.63;;;4.87;;
173;SDS011;75;48.784;9.364;2023-05-07T09:28:20;7.57;;;5.40;;
173;SDS011;75;48.784;9.364;2023-05-07T09:31:04;6.43;;;5.20;;
173;SDS011;75;48.784;9.364;2023-05-07T09:33:49;8.80;;;5.13;;
173;SDS011;75;48.784;9.364;2023-05-07T09:36:34;8.43;;;5.17;;
173;SDS011;75;48.784;9.364;2023-05-07T09:39:19;7.27;;;5.03;;
173;SDS011;75;48.784;9.364;2023-05-07T09:42:03;6.10;;;5.10;;
173;SDS011;75;48.784;9.364;2023-05-07T09:44:48;5.80;;;5.17;;
173;SDS011;75;48.784;9.364;2023-05-07T09:47:33;6.80;;;5.07;;
173;SDS011;75;48.784;9.364;2023-05-07T09:50:25;10.07;;;5.50;;
173;SDS011;75;48.784;9.364;2023-05-07T09:53:11;6.97;;;5.00;;
173;SDS011;75;48.784;9.364;2023-05-07T09:55:57;6.10;;;4.83;;
173;SDS011;75;48.784;9.364;2023-05-07T09:58:43;7.50;;;4.50;;
173;SDS011;75;48.784;9.364;2023-05-07T10:01:29;6.30;;;4.53;;
173;SDS011;75;48.784;9.364;2023-05-07T10:04:15;6.83;;;4.67;;
173;SDS011;75;48.784;9.364;2023-05-07T10:07:00;6.83;;;4.97;;
173;SDS011;75;48.784;9.364;2023-05-07T10:09:46;8.23;;;5.00;;
173;SDS011;75;48.784;9.364;2023-05-07T10:12:30;7.63;;;4.97;;
173;SDS011;75;48.784;9.364;2023-05-07T10:15:21;7.13;;;4.83;;
173;SDS011;75;48.784;9.364;2023-05-07T10:18:05;5.87;;;4.80;;
173;SDS011;75;48.784;9.364;2023-05-07T10:20:50;6.30;;;4.53;;
173;SDS011;75;48.784;9.364;2023-05-07T10:23:36;6.17;;;4.57;;
173;SDS011;75;48.784;9.364;2023-05-07T10:26:21;5.90;;;4.80;;
173;SDS011;75;48.784;9.364;2023-05-07T10:29:07;6.83;;;4.60;;
173;SDS011;75;48.784;9.364;2023-05-07T10:32:07;6.60;;;4.63;;
173;SDS011;75;48.784;9.364;2023-05-07T10:34:56;7.13;;;4.80;;
173;SDS011;75;48.784;9.364;2023-05-07T10:37:43;5.20;;;4.03;;
173;SDS011;75;48.784;9.364;2023-05-07T10:40:28;7.40;;;4.23;;
173;SDS011;75;48.784;9.364;2023-05-07T10:43:13;5.77;;;4.63;;
173;SDS011;75;48.784;9.364;2023-05-07T10:46:17;6.47;;;4.63;;
173;SDS011;75;48.784;9.364;2023-05-07T11:01:04;9.03;;;4.97;;
173;SDS011;75;48.784;9.364;2023-05-07T11:04:12;5.40;;;4.17;;
173;SDS011;75;48.784;9.364;2023-05-07T11:09:56;5.50;;;4.40;;
173;SDS011;75;48.784;9.364;2023-05-07T11:15:36;5.40;;;4.30;;
173;SDS011;75;48.784;9.364;2023-05-07T11:18:21;4.63;;;4.10;;
173;SDS011;75;48.784;9.364;2023-05-07T11:21:06;4.90;;;4.00;;
173;SDS011;75;48.784;9.364;2023-05-07T11:26:42;9.33;;;4.20;;
173;SDS011;75;48.784;9.364;2023-05-07T11:29:28;5.40;;;4.00;;
173;SDS011;75;48.784;9.364;2023-05-07T11:32:12;6.83;;;4.17;;
173;SDS011;75;48.784;9.364;2023-05-07T11:34:58;8.20;;;4.47;;
173;SDS011;75;48.784;9.364;2023-05-07T11:37:43;7.10;;;4.33;;
173;SDS011;75;48.784;9.364;2023-05-07T11:40:29;8.37;;;4.93;;
173;SDS011;75;48.784;9.364;2023-05-07T11:43:13;21.30;;;5.80;;
173;SDS011;75;48.784;9.364;2023-05-07T11:46:05;12.00;;;6.00;;
173;SDS011;75;48.784;9.364;2023-05-07T11:48:50;8.80;;;6.07;;
173;SDS011;75;48.784;9.364;2023-05-07T11:51:35;8.23;;;6.10;;
173;SDS011;75;48.784;9.364;2023-05-07T11:54:19;9.70;;;6.50;;
173;SDS011;75;48.784;9.364;2023-05-07T11:57:05;7.90;;;5.90;;
173;SDS011;75;48.784;9.364;2023-05-07T11:59:54;8.67;;;6.07;;
173;SDS011;75;48.784;9.364;2023-05-07T12:02:38;7.90;;;5.40;;
173;SDS011;75;48.784;9.364;2023-05-07T12:05:23;9.23;;;5.23;;
173;SDS011;75;48.784;9.364;2023-05-07T12:08:07;10.10;;;6.13;;
173;SDS011;75;48.784;9.364;2023-05-07T12:10:53;8.03;;;5.93;;
173;SDS011;75;48.784;9.364;2023-05-07T12:13:38;7.90;;;4.90;;
173;SDS011;75;48.784;9.364;2023-05-07T12:16:22;6.20;;;4.70;;
173;SDS011;75;48.784;9.364;2023-05-07T12:19:08;6.80;;;4.90;;
173;SDS011;75;48.784;9.364;2023-05-07T12:21:56;6.10;;;4.33;;
173;SDS011;75;48.784;9.364;2023-05-07T12:24:44;8.20;;;5.23;;
173;SDS011;75;48.784;9.364;2023-05-07T12:27:29;9.50;;;5.93;;
173;SDS011;75;48.784;9.364;2023-05-07T12:30:14;16.93;;;6.60;;
173;SDS011;75;48.784;9.364;2023-05-07T12:32:58;11.10;;;6.63;;
173;SDS011;75;48.784;9.364;2023-05-07T12:35:43;11.73;;;6.80;;
173;SDS011;75;48.784;9.364;2023-05-07T12:38:32;13.53;;;7.10;;
173;SDS011;75;48.784;9.364;2023-05-07T12:41:18;22.10;;;7.87;;
173;SDS011;75;48.784;9.364;2023-05-07T12:44:09;27.17;;;9.70;;
173;SDS011;75;48.784;9.364;2023-05-07T12:47:03;24.60;;;10.03;;
173;SDS011;75;48.784;9.364;2023-05-07T12:49:29;13.57;;;8.00;;
173;SDS011;75;48.784;9.364;2023-05-07T12:51:55;13.63;;;8.10;;
173;SDS011;75;48.784;9.364;2023-05-07T12:54:31;14.70;;;9.00;;
173;SDS011;75;48.784;9.364;2023-05-07T12:57:01;15.27;;;8.80;;
173;SDS011;75;48.784;9.364;2023-05-07T12:59:34;15.10;;;9.37;;
173;SDS011;75;48.784;9.364;2023-05-07T13:02:00;19.13;;;9.80;;
173;SDS011;75;48.784;9.364;2023-05-07T13:04:26;15.47;;;9.80;;
173;SDS011;75;48.784;9.364;2023-05-07T13:06:52;17.33;;;10.00;;
173;SDS011;75;48.784;9.364;2023-05-07T13:09:18;12.70;;;9.60;;
173;SDS011;75;48.784;9.364;2023-05-07T13:11:44;14.70;;;9.73;;
173;SDS011;75;48.784;9.364;2023-05-07T13:14:09;12.40;;;9.23;;
173;SDS011;75;48.784;9.364;2023-05-07T13:16:35;11.33;;;8.77;;
173;SDS011;75;48.784;9.364;2023-05-07T13:19:01;14.43;;;8.00;;
173;SDS011;75;48.784;9.364;2023-05-07T13:21:27;8.83;;;6.07;;
173;SDS011;75;48.784;9.364;2023-05-07T13:23:55;10.17;;;6.67;;
173;SDS011;75;48.784;9.364;2023-05-07T13:26:22;8.43;;;5.73;;
173;SDS011;75;48.784;9.364;2023-05-07T13:28:48;10.40;;;6.07;;
173;SDS011;75;48.784;9.364;2023-05-07T13:31:14;9.00;;;4.90;;
173;SDS011;75;48.784;9.364;2023-05-07T13:33:40;9.33;;;5.20;;
173;SDS011;75;48.784;9.364;2023-05-07T13:36:06;7.50;;;4.90;;
173;SDS011;75;48.784;9.364;2023-05-07T13:38:32;5.43;;;3.87;;
173;SDS011;75;48.784;9.364;2023-05-07T13:40:58;4.27;;;3.13;;
173;SDS011;75;48.784;9.364;2023-05-07T13:43:24;8.10;;;3.50;;
173;SDS011;75;48.784;9.364;2023-05-07T13:45:50;5.47;;;3.93;;
173;SDS011;75;48.784;9.364;2023-05-07T13:48:16;9.33;;;4.47;;
173;SDS011;75;48.784;9.364;2023-05-07T13:50:42;5.27;;;3.50;;
173;SDS011;75;48.784;9.364;2023-05-07T13:53:08;5.30;;;4.20;;
173;SDS011;75;48.784;9.364;2023-05-07T13:55:34;5.77;;;3.70;;
173;SDS011;75;48.784;9.364;2023-05-07T13:58:00;7.10;;;3.40;;
173;SDS011;75;48.784;9.364;2023-05-07T14:00:27;5.33;;;3.43;;
173;SDS011;75;48.784;9.364;2023-05-07T14:02:53;6.73;;;3.30;;
173;SDS011;75;48.784;9.364;2023-05-07T14:05:19;6.17;;;3.50;;
173;SDS011;75;48.784;9.364;2023-05-07T14:07:45;6.07;;;3.90;;
173;SDS011;75;48.784;9.364;2023-05-07T14:10:13;6.13;;;3.30;;
173;SDS011;75;48.784;9.364;2023-05-07T14:12:40;3.70;;;3.10;;
173;SDS011;75;48.784;9.364;2023-05-07T14:15:06;6.90;;;2.93;;
173;SDS011;75;48.784;9.364;2023-05-07T14:17:32;5.97;;;3.10;;
173;SDS011;75;48.784;9.364;2023-05-07T14:19:58;4.63;;;2.90;;
173;SDS011;75;48.784;9.364;2023-05-07T14:22:24;9.23;;;2.90;;
173;SDS011;75;48.784;9.364;2023-05-07T14:24:50;4.77;;;3.17;;
173;SDS011;75;48.784;9.364;2023-05-07T14:27:16;8.13;;;3.50;;
173;SDS011;75;48.784;9.364;2023-05-07T14:29:42;7.33;;;3.90;;
173;SDS011;75;48.784;9.364;2023-05-07T14:32:08;5.63;;;3.73;;
173;SDS011;75;48.784;9.364;2023-05-07T14:34:34;6.90;;;3.70;;
173;SDS011;75;48.784;9.364;2023-05-07T14:37:00;4.90;;;3.80;;
173;SDS011;75;48.784;9.364;2023-05-07T14:39:26;4.80;;;3.70;;
173;SDS011;75;48.784;9.364;2023-05-07T14:41:52;5.83;;;4.07;;
173;SDS011;75;48.784;9.364;2023-05-07T14:44:19;5.00;;;4.03;;
173;SDS011;75;48.784;9.364;2023-05-07T14:46:45;6.57;;;4.00;;
173;SDS011;75;48.784;9.364;2023-05-07T14:49:11;6.40;;;4.10;;
173;SDS011;75;48.784;9.364;2023-05-07T14:51:42;6.80;;;4.37;;
173;SDS011;75;48.784;9.364;2023-05-07T14:54:08;7.10;;;3.70;;
173;SDS011;75;48.784;9.364;2023-05-07T14:56:34;5.63;;;4.20;;
173;SDS011;75;48.784;9.364;2023-05-07T14:59:00;6.53;;;4.17;;
173;SDS011;75;48.784;9.364;2023-05-07T15:01:27;4.90;;;3.80;;
173;SDS011;75;48.784;9.364;2023-05-07T15:03:53;5.00;;;3.90;;
173;SDS011;75;48.784;9.364;2023-05-07T15:06:20;5.03;;;3.87;;
173;SDS011;75;48.784;9.364;2023-05-07T15:08:46;5.33;;;3.93;;
173;SDS011;75;48.784;9.364;2023-05-07T15:11:13;5.80;;;4.33;;
173;SDS011;75;48.784;9.364;2023-05-07T15:13:39;5.67;;;3.67;;
173;SDS011;75;48.784;9.364;2023-05-07T15:16:05;6.83;;;4.00;;
173;SDS011;75;48.784;9.364;2023-05-07T15:18:31;5.83;;;4.10;;
173;SDS011;75;48.784;9.364;2023-05-07T15:20:57;5.90;;;4.00;;
173;SDS011;75;48.784;9.364;2023-05-07T15:23:23;7.47;;;4.50;;
173;SDS011;75;48.784;9.364;2023-05-07T15:25:49;5.83;;;4.23;;
173;SDS011;75;48.784;9.364;2023-05-07T15:28:14;5.47;;;3.70;;
173;SDS011;75;48.784;9.364;2023-05-07T15:30:41;6.40;;;4.00;;
173;SDS011;75;48.784;9.364;2023-05-07T15:33:07;5.63;;;4.10;;
173;SDS011;75;48.784;9.364;2023-05-07T15:35:32;7.93;;;4.27;;
173;SDS011;75;48.784;9.364;2023-05-07T15:37:58;6.80;;;4.13;;
173;SDS011;75;48.784;9.364;2023-05-07T15:40:24;7.63;;;4.60;;
173;SDS011;75;48.784;9.364;2023-05-07T15:42:52;5.50;;;4.43;;
173;SDS011;75;48.784;9.364;2023-05-07T15:45:19;6.33;;;4.40;;
173;SDS011;75;48.784;9.364;2023-05-07T15:47:45;7.33;;;4.40;;
173;SDS011;75;48.784;9.364;2023-05-07T15:50:12;6.13;;;4.60;;
173;SDS011;75;48.784;9.364;2023-05-07T15:52:38;6.67;;;4.63;;
173;SDS011;75;48.784;9.364;2023-05-07T15:55:04;9.90;;;4.57;;
173;SDS011;75;48.784;9.364;2023-05-07T15:57:31;7.20;;;4.50;;
173;SDS011;75;48.784;9.364;2023-05-07T15:59:57;4.60;;;4.10;;
173;SDS011;75;48.784;9.364;2023-05-07T16:02:23;6.13;;;4.37;;
173;SDS011;75;48.784;9.364;2023-05-07T16:04:50;6.20;;;4.47;;
173;SDS011;75;48.784;9.364;2023-05-07T16:07:16;6.73;;;4.50;;
173;SDS011;75;48.784;9.364;2023-05-07T16:09:43;7.40;;;4.70;;
173;SDS011;75;48.784;9.364;2023-05-07T16:12:10;7.23;;;4.40;;
173;SDS011;75;48.784;9.364;2023-05-07T16:14:36;7.10;;;4.40;;
173;SDS011;75;48.784;9.364;2023-05-07T16:17:02;6.20;;;4.73;;
173;SDS011;75;48.784;9.364;2023-05-07T16:19:28;6.87;;;4.47;;
173;SDS011;75;48.784;9.364;2023-05-07T16:21:54;6.37;;;4.80;;
173;SDS011;75;48.784;9.364;2023-05-07T16:24:20;6.17;;;4.70;;
173;SDS011;75;48.784;9.364;2023-05-07T16:26:46;6.20;;;4.10;;
173;SDS011;75;48.784;9.364;2023-05-07T16:29:12;5.93;;;4.20;;
173;SDS011;75;48.784;9.364;2023-05-07T16:31:38;5.47;;;4.27;;
173;SDS011;75;48.784;9.364;2023-05-07T16:34:04;9.03;;;4.43;;
173;SDS011;75;48.784;9.364;2023-05-07T16:36:29;5.50;;;4.27;;
173;SDS011;75;48.784;9.364;2023-05-07T16:38:55;8.70;;;4.87;;
173;SDS011;75;48.784;9.364;2023-05-07T16:41:22;6.60;;;4.63;;
173;SDS011;75;48.784;9.364;2023-05-07T16:43:48;6.73;;;4.73;;
173;SDS011;75;48.784;9.364;2023-05-07T16:46:14;6.90;;;4.70;;
173;SDS011;75;48.784;9.364;2023-05-07T16:48:40;6.60;;;4.80;;
173;SDS011;75;48.784;9.364;2023-05-07T16:51:06;7.43;;;4.90;;
173;SDS011;75;48.784;9.364;2023-05-07T16:53:32;8.50;;;4.57;;
173;SDS011;75;48.784;9.364;2023-05-07T16:56:02;6.57;;;4.30;;
173;SDS011;75;48.784;9.364;2023-05-07T16:58:28;8.37;;;5.20;;
173;SDS011;75;48.784;9.364;2023-05-07T17:00:54;6.80;;;4.60;;
173;SDS011;75;48.784;9.364;2023-05-07T17:03:20;8.70;;;4.60;;
173;SDS011;75;48.784;9.364;2023-05-07T17:05:46;11.30;;;5.00;;
173;SDS011;75;48.784;9.364;2023-05-07T17:08:12;9.00;;;5.10;;
173;SDS011;75;48.784;9.364;2023-05-07T17:10:38;6.47;;;4.90;;
173;SDS011;75;48.784;9.364;2023-05-07T17:13:04;6.30;;;4.67;;
173;SDS011;75;48.784;9.364;2023-05-07T17:15:30;7.47;;;5.00;;
173;SDS011;75;48.784;9.364;2023-05-07T17:17:55;7.13;;;5.10;;
173;SDS011;75;48.784;9.364;2023-05-07T17:20:21;9.60;;;5.63;;
173;SDS011;75;48.784;9.364;2023-05-07T17:22:49;7.10;;;5.47;;
173;SDS011;75;48.784;9.364;2023-05-07T17:25:14;8.17;;;5.67;;
173;SDS011;75;48.784;9.364;2023-05-07T17:27:40;7.03;;;5.30;;
173;SDS011;75;48.784;9.364;2023-05-07T17:30:06;8.20;;;5.50;;
173;SDS011;75;48.784;9.364;2023-05-07T17:32:33;9.07;;;5.73;;
173;SDS011;75;48.784;9.364;2023-05-07T17:34:59;9.60;;;6.80;;
173;SDS011;75;48.784;9.364;2023-05-07T17:37:25;12.27;;;6.70;;
173;SDS011;75;48.784;9.364;2023-05-07T17:39:51;10.73;;;6.97;;